createdAt,value
2023-03-16T00:01:03.377Z,6.67
2023-03-16T00:03:29.938Z,6.62
2023-03-16T00:05:56.441Z,6.69
2023-03-16T00:08:22.950Z,6.48
2023-03-16T00:10:49.353Z,6.71
2023-03-16T00:13:15.746Z,6.46
2023-03-16T00:15:42.132Z,6.32
2023-03-16T00:18:08.619Z,6.37
2023-03-16T00:20:35.241Z,6.44
2023-03-16T00:23:01.732Z,6.35
2023-03-16T00:25:28.120Z,6.41
2023-03-16T00:27:54.495Z,6.55
2023-03-16T00:30:20.847Z,6.57
2023-03-16T00:32:47.301Z,6.60
2023-03-16T00:35:13.746Z,6.45
2023-03-16T00:37:40.289Z,6.50
2023-03-16T00:40:06.754Z,6.52
2023-03-16T00:42:33.142Z,6.51
2023-03-16T00:44:59.556Z,6.54
2023-03-16T00:47:25.938Z,6.47
2023-03-16T00:49:52.389Z,6.60
2023-03-16T00:52:18.791Z,6.44
2023-03-16T00:54:45.200Z,6.47
2023-03-16T00:57:11.699Z,6.61
2023-03-16T00:59:38.129Z,6.68
2023-03-16T01:02:04.711Z,6.58
2023-03-16T01:04:31.156Z,6.95
2023-03-16T01:06:57.602Z,7.13
2023-03-16T01:09:23.987Z,7.25
2023-03-16T01:11:50.419Z,7.45
2023-03-16T01:14:16.864Z,7.51
2023-03-16T01:16:43.261Z,7.60
2023-03-16T01:19:09.686Z,7.69
2023-03-16T01:21:36.074Z,7.63
2023-03-16T01:24:02.493Z,7.65
2023-03-16T01:26:28.879Z,7.53
2023-03-16T01:28:55.284Z,7.50
2023-03-16T01:31:22.007Z,7.58
2023-03-16T01:33:48.487Z,7.57
2023-03-16T01:36:14.897Z,7.63
2023-03-16T01:38:41.323Z,7.59
2023-03-16T01:41:07.727Z,7.52
2023-03-16T01:43:34.144Z,7.51
2023-03-16T01:46:00.647Z,7.53
2023-03-16T01:48:27.248Z,7.55
2023-03-16T01:50:53.663Z,7.61
2023-03-16T01:53:20.074Z,7.62
2023-03-16T01:55:46.517Z,7.58
2023-03-16T01:58:12.942Z,7.51
2023-03-16T02:00:39.333Z,7.40
2023-03-16T02:03:05.714Z,6.94
2023-03-16T02:05:32.217Z,6.92
2023-03-16T02:07:58.729Z,7.20
2023-03-16T02:10:25.223Z,7.09
2023-03-16T02:12:51.634Z,6.73
2023-03-16T02:15:18.030Z,6.19
2023-03-16T02:17:44.397Z,6.14
2023-03-16T02:20:10.818Z,6.55
2023-03-16T02:22:37.240Z,6.84
2023-03-16T02:25:03.884Z,6.92
2023-03-16T02:27:30.289Z,6.23
2023-03-16T02:29:56.687Z,6.65
2023-03-16T02:32:23.133Z,6.95
2023-03-16T02:34:49.535Z,6.55
2023-03-16T02:37:15.963Z,6.73
2023-03-16T02:39:42.397Z,6.98
2023-03-16T02:42:08.931Z,7.15
2023-03-16T02:44:35.340Z,7.16
2023-03-16T02:47:01.741Z,7.17
2023-03-16T02:49:28.173Z,6.47
2023-03-16T02:51:54.652Z,6.49
2023-03-16T02:54:21.053Z,6.79
2023-03-16T02:56:47.500Z,6.74
2023-03-16T02:59:14.035Z,6.74
2023-03-16T03:01:40.497Z,6.31
2023-03-16T03:04:07.001Z,5.70
2023-03-16T03:06:33.381Z,5.62
2023-03-16T03:08:59.779Z,5.66
2023-03-16T03:11:26.457Z,5.47
2023-03-16T03:13:52.864Z,5.48
2023-03-16T03:16:19.279Z,5.37
2023-03-16T03:18:45.926Z,5.23
2023-03-16T03:21:12.324Z,5.14
2023-03-16T03:23:38.693Z,5.01
2023-03-16T03:26:05.115Z,4.91
2023-03-16T03:28:31.517Z,4.84
2023-03-16T03:30:57.889Z,4.94
2023-03-16T03:33:24.310Z,4.98
2023-03-16T03:35:50.903Z,5.02
2023-03-16T03:38:17.398Z,5.03
2023-03-16T03:40:43.814Z,4.92
2023-03-16T03:43:10.187Z,5.15
2023-03-16T03:45:36.658Z,5.46
2023-03-16T03:48:03.139Z,5.69
2023-03-16T03:50:30.017Z,5.51
2023-03-16T03:52:56.623Z,5.56
2023-03-16T03:55:23.039Z,5.62
2023-03-16T03:57:49.491Z,5.48
2023-03-16T04:00:15.912Z,5.29
2023-03-16T04:02:42.514Z,5.29
2023-03-16T04:05:09.032Z,5.21
2023-03-16T04:07:35.497Z,5.26
2023-03-16T04:10:02.013Z,5.25
2023-03-16T04:12:28.453Z,5.22
2023-03-16T04:14:54.947Z,5.16
2023-03-16T04:17:21.362Z,5.66
2023-03-16T04:19:47.762Z,5.48
2023-03-16T04:22:14.134Z,5.85
2023-03-16T04:24:40.539Z,6.16
2023-03-16T04:27:07.026Z,6.21
2023-03-16T04:29:33.390Z,6.21
2023-03-16T04:31:59.858Z,6.44
2023-03-16T04:34:26.226Z,6.56
2023-03-16T04:36:52.634Z,6.54
2023-03-16T04:39:19.041Z,6.54
2023-03-16T04:41:45.482Z,6.42
2023-03-16T04:44:11.897Z,6.41
2023-03-16T04:46:38.420Z,6.38
2023-03-16T04:49:04.936Z,6.37
2023-03-16T04:51:31.304Z,6.48
2023-03-16T04:53:57.856Z,6.46
2023-03-16T04:56:24.294Z,6.51
2023-03-16T04:58:50.668Z,6.49
2023-03-16T05:01:17.091Z,6.52
2023-03-16T05:03:43.637Z,6.47
2023-03-16T05:06:10.037Z,6.47
2023-03-16T05:08:36.558Z,6.50
2023-03-16T05:11:03.179Z,6.49
2023-03-16T05:13:29.740Z,6.50
2023-03-16T05:15:56.317Z,6.49
2023-03-16T05:18:22.966Z,6.47
2023-03-16T05:20:49.427Z,6.41
2023-03-16T05:23:15.859Z,6.46
2023-03-16T05:25:42.434Z,6.47
2023-03-16T05:28:08.853Z,6.25
2023-03-16T05:30:35.250Z,6.45
2023-03-16T05:33:01.804Z,6.65
2023-03-16T05:35:28.781Z,6.54
2023-03-16T05:37:55.211Z,6.58
2023-03-16T05:40:21.628Z,6.57
2023-03-16T05:42:48.012Z,6.56
2023-03-16T05:45:14.502Z,6.58
2023-03-16T05:47:40.922Z,6.24
2023-03-16T05:50:07.321Z,6.01
2023-03-16T05:52:33.787Z,5.96
2023-03-16T05:55:00.190Z,5.91
2023-03-16T05:57:26.566Z,6.33
2023-03-16T05:59:52.979Z,6.43
2023-03-16T06:02:19.374Z,6.05
2023-03-16T06:04:45.769Z,5.94
2023-03-16T06:07:12.325Z,6.01
2023-03-16T06:09:38.746Z,5.82
2023-03-16T06:12:05.110Z,6.25
2023-03-16T06:14:31.511Z,6.14
2023-03-16T06:16:57.879Z,5.37
2023-03-16T06:19:24.295Z,5.21
2023-03-16T06:21:50.739Z,5.15
2023-03-16T06:24:17.213Z,5.43
2023-03-16T06:26:43.889Z,5.57
2023-03-16T06:29:10.434Z,5.44
2023-03-16T06:31:36.850Z,5.74
2023-03-16T06:34:03.305Z,5.68
2023-03-16T06:36:29.711Z,5.67
2023-03-16T06:38:56.142Z,5.71
2023-03-16T06:41:22.561Z,6.07
2023-03-16T06:43:49.357Z,6.56
2023-03-16T06:46:15.777Z,6.65
2023-03-16T06:48:42.204Z,6.86
2023-03-16T06:51:10.551Z,6.92
2023-03-16T06:53:37.207Z,6.93
2023-03-16T06:56:03.680Z,6.41
2023-03-16T06:58:30.268Z,6.65
2023-03-16T07:00:56.764Z,6.71
2023-03-16T07:03:23.182Z,6.75
2023-03-16T07:05:49.586Z,6.88
2023-03-16T07:08:16.021Z,6.78
2023-03-16T07:10:42.477Z,6.62
2023-03-16T07:13:08.863Z,6.70
2023-03-16T07:15:35.585Z,6.75
2023-03-16T07:18:01.974Z,6.86
2023-03-16T07:20:28.562Z,6.88
2023-03-16T07:22:55.110Z,6.93
2023-03-16T07:25:21.566Z,7.14
2023-03-16T07:27:47.954Z,7.24
2023-03-16T07:30:14.373Z,7.18
2023-03-16T07:32:40.855Z,7.50
2023-03-16T07:35:07.247Z,7.51
2023-03-16T07:37:33.687Z,7.02
2023-03-16T07:40:00.259Z,6.94
2023-03-16T07:42:26.682Z,6.70
2023-03-16T07:44:53.114Z,6.64
2023-03-16T07:47:19.550Z,6.91
2023-03-16T07:49:45.925Z,6.57
2023-03-16T07:52:12.332Z,6.40
2023-03-16T07:54:38.754Z,7.20
2023-03-16T07:57:05.144Z,7.67
2023-03-16T07:59:31.537Z,7.88
2023-03-16T08:01:58.018Z,7.95
2023-03-16T08:04:24.458Z,7.69
2023-03-16T08:06:50.926Z,8.03
2023-03-16T08:09:17.405Z,8.08
2023-03-16T08:11:44.064Z,8.15
2023-03-16T08:14:10.429Z,8.43
2023-03-16T08:16:36.848Z,8.53
2023-03-16T08:19:03.252Z,8.70
2023-03-16T08:21:29.630Z,8.90
2023-03-16T08:23:56.051Z,9.02
2023-03-16T08:26:22.555Z,9.03
2023-03-16T08:28:48.942Z,9.16
2023-03-16T08:31:15.396Z,9.30
2023-03-16T08:33:41.909Z,9.22
2023-03-16T08:36:08.420Z,9.02
2023-03-16T08:38:34.856Z,9.13
2023-03-16T08:41:01.250Z,9.04
2023-03-16T08:43:27.699Z,9.28
2023-03-16T08:45:54.163Z,9.02
2023-03-16T08:48:20.627Z,8.85
2023-03-16T08:50:47.116Z,9.12
2023-03-16T08:53:13.649Z,9.18
2023-03-16T08:55:40.199Z,9.28
2023-03-16T08:58:06.597Z,9.41
2023-03-16T09:00:33.008Z,9.54
2023-03-16T09:02:59.456Z,9.62
2023-03-16T09:05:25.958Z,9.78
2023-03-16T09:07:52.353Z,9.61
2023-03-16T09:10:18.875Z,9.80
2023-03-16T09:12:45.282Z,9.67
2023-03-16T09:15:11.684Z,9.74
2023-03-16T09:17:38.087Z,9.94
2023-03-16T09:20:15.331Z,10.04
2023-03-16T09:22:45.952Z,9.66
2023-03-16T09:25:12.373Z,9.61
2023-03-16T09:27:38.861Z,9.37
2023-03-16T09:30:05.441Z,9.57
2023-03-16T09:32:31.882Z,8.99
2023-03-16T09:34:58.292Z,9.41
2023-03-16T09:37:24.869Z,9.79
2023-03-16T09:39:51.819Z,10.02
2023-03-16T09:42:18.373Z,10.17
2023-03-16T09:44:44.735Z,10.33
2023-03-16T09:47:11.489Z,10.35
2023-03-16T09:49:37.957Z,10.52
2023-03-16T09:52:04.412Z,10.50
2023-03-16T09:54:30.885Z,10.28
2023-03-16T09:56:57.400Z,10.18
2023-03-16T09:59:23.856Z,10.38
2023-03-16T10:01:50.301Z,10.77
2023-03-16T10:04:16.703Z,10.66
2023-03-16T10:06:43.138Z,10.84
2023-03-16T10:09:09.777Z,10.59
2023-03-16T10:11:36.226Z,10.91
2023-03-16T10:14:02.597Z,10.79
2023-03-16T10:16:29.022Z,10.84
2023-03-16T10:18:55.567Z,10.98
2023-03-16T10:21:22.000Z,11.06
2023-03-16T10:23:48.407Z,11.16
2023-03-16T10:26:14.887Z,10.75
2023-03-16T10:28:41.254Z,11.08
2023-03-16T10:31:07.662Z,11.31
2023-03-16T10:33:34.037Z,11.15
2023-03-16T10:36:00.522Z,11.09
2023-03-16T10:38:26.930Z,11.32
2023-03-16T10:40:53.397Z,10.86
2023-03-16T10:43:19.942Z,11.24
2023-03-16T10:45:46.455Z,11.49
2023-03-16T10:48:12.937Z,11.62
2023-03-16T10:50:39.440Z,11.74
2023-03-16T10:53:05.913Z,11.82
2023-03-16T10:55:32.301Z,11.83
2023-03-16T10:57:58.694Z,11.74
2023-03-16T11:00:25.077Z,11.75
2023-03-16T11:02:51.517Z,11.77
2023-03-16T11:05:17.952Z,11.50
2023-03-16T11:07:44.549Z,11.89
2023-03-16T11:10:11.087Z,11.85
2023-03-16T11:12:37.450Z,11.90
2023-03-16T11:15:07.493Z,11.95
2023-03-16T11:17:35.693Z,11.81
2023-03-16T11:20:02.228Z,11.84
2023-03-16T11:22:28.825Z,12.10
2023-03-16T11:24:55.241Z,12.31
2023-03-16T11:27:21.706Z,12.57
2023-03-16T11:29:48.064Z,12.66
2023-03-16T11:32:15.357Z,12.68
2023-03-16T11:34:41.908Z,12.42
2023-03-16T11:37:08.324Z,12.81
2023-03-16T11:39:34.729Z,13.04
2023-03-16T11:42:01.089Z,12.79
2023-03-16T11:44:27.524Z,12.70
2023-03-16T11:46:53.952Z,12.99
2023-03-16T11:49:20.613Z,13.10
2023-03-16T11:51:47.006Z,13.09
2023-03-16T11:54:13.375Z,13.25
2023-03-16T11:56:39.825Z,13.16
2023-03-16T11:59:06.241Z,12.87
2023-03-16T12:01:32.726Z,12.73
2023-03-16T12:03:59.242Z,13.03
2023-03-16T12:06:25.847Z,13.26
2023-03-16T12:08:52.338Z,13.34
2023-03-16T12:11:18.723Z,13.14
2023-03-16T12:13:45.264Z,13.26
2023-03-16T12:16:11.878Z,13.14
2023-03-16T12:18:38.623Z,12.96
2023-03-16T12:21:05.073Z,13.31
2023-03-16T12:23:31.515Z,13.50
2023-03-16T12:25:57.955Z,13.49
2023-03-16T12:28:24.372Z,13.25
2023-03-16T12:30:50.793Z,13.46
2023-03-16T12:33:17.653Z,13.65
2023-03-16T12:35:44.123Z,13.72
2023-03-16T12:38:10.539Z,13.88
2023-03-16T12:40:36.919Z,13.83
2023-03-16T12:43:03.364Z,13.85
2023-03-16T12:45:30.238Z,13.97
2023-03-16T12:47:56.754Z,14.09
2023-03-16T12:50:23.147Z,14.20
2023-03-16T12:52:49.521Z,14.17
2023-03-16T12:55:15.941Z,14.06
2023-03-16T12:57:42.388Z,14.13
2023-03-16T13:00:08.863Z,14.14
2023-03-16T13:02:35.286Z,14.07
2023-03-16T13:05:01.693Z,14.13
2023-03-16T13:07:28.238Z,13.87
2023-03-16T13:09:54.772Z,14.15
2023-03-16T13:12:21.158Z,14.34
2023-03-16T13:14:47.530Z,14.22
2023-03-16T13:17:14.041Z,14.23
2023-03-16T13:19:40.413Z,14.19
2023-03-16T13:22:06.842Z,14.26
2023-03-16T13:24:33.496Z,14.37
2023-03-16T13:26:59.904Z,14.36
2023-03-16T13:29:26.368Z,14.37
2023-03-16T13:31:52.883Z,14.28
2023-03-16T13:34:19.379Z,14.37
2023-03-16T13:36:45.844Z,14.42
2023-03-16T13:39:12.235Z,14.42
2023-03-16T13:41:38.931Z,14.49
2023-03-16T13:44:05.348Z,14.50
2023-03-16T13:46:31.742Z,14.35
2023-03-16T13:48:58.202Z,14.39
2023-03-16T13:51:24.610Z,14.37
2023-03-16T13:53:50.969Z,14.42
2023-03-16T13:56:17.395Z,14.45
2023-03-16T13:58:43.881Z,14.40
2023-03-16T14:01:10.279Z,14.48
2023-03-16T14:03:36.974Z,14.41
2023-03-16T14:06:03.452Z,14.63
2023-03-16T14:08:29.896Z,14.84
2023-03-16T14:10:56.650Z,14.91
2023-03-16T14:13:23.830Z,14.98
2023-03-16T14:15:50.367Z,15.00
2023-03-16T14:18:16.779Z,14.18
2023-03-16T14:20:43.178Z,14.43
2023-03-16T14:23:09.617Z,14.51
2023-03-16T14:25:35.995Z,14.75
2023-03-16T14:28:02.404Z,14.88
2023-03-16T14:30:28.812Z,14.84
2023-03-16T14:32:55.291Z,15.01
2023-03-16T14:35:21.757Z,15.06
2023-03-16T14:37:48.233Z,15.15
2023-03-16T14:40:14.697Z,15.20
2023-03-16T14:42:41.094Z,15.19
2023-03-16T14:45:07.693Z,15.20
2023-03-16T14:47:34.103Z,15.27
2023-03-16T14:50:00.569Z,15.31
2023-03-16T14:52:26.976Z,15.44
2023-03-16T14:54:53.390Z,15.51
2023-03-16T14:57:19.772Z,15.78
2023-03-16T14:59:46.462Z,15.75
2023-03-16T15:02:12.909Z,15.81
2023-03-16T15:04:39.328Z,15.76
2023-03-16T15:07:05.705Z,15.58
2023-03-16T15:09:32.106Z,15.87
2023-03-16T15:11:59.128Z,16.00
2023-03-16T15:14:25.570Z,16.23
2023-03-16T15:16:52.018Z,16.22
2023-03-16T15:19:18.436Z,16.51
2023-03-16T15:21:44.895Z,16.68
2023-03-16T15:24:11.650Z,16.63
2023-03-16T15:26:38.061Z,16.77
2023-03-16T15:29:04.441Z,16.84
2023-03-16T15:31:30.885Z,16.97
2023-03-16T15:33:57.328Z,16.92
2023-03-16T15:36:24.048Z,16.68
2023-03-16T15:38:50.612Z,16.55
2023-03-16T15:41:17.425Z,16.65
2023-03-16T15:43:43.945Z,16.57
2023-03-16T15:46:10.354Z,16.45
2023-03-16T15:48:39.066Z,16.44
2023-03-16T15:51:05.682Z,16.37
2023-03-16T15:53:34.614Z,16.20
2023-03-16T15:56:02.218Z,16.57
2023-03-16T15:58:28.676Z,16.51
2023-03-16T16:00:55.130Z,16.22
2023-03-16T16:03:21.521Z,16.04
2023-03-16T16:05:47.954Z,16.01
2023-03-16T16:08:14.637Z,15.95
2023-03-16T16:10:41.075Z,15.98
2023-03-16T16:13:07.615Z,15.86
2023-03-16T16:15:34.648Z,15.65
2023-03-16T16:18:21.352Z,15.54
2023-03-16T16:20:47.856Z,15.51
2023-03-16T16:23:14.305Z,15.18
2023-03-16T16:25:40.817Z,15.11
2023-03-16T16:28:07.392Z,15.06
2023-03-16T16:30:34.044Z,15.06
2023-03-16T16:33:00.560Z,15.00
2023-03-16T16:35:27.560Z,14.97
2023-03-16T16:37:54.216Z,14.91
2023-03-16T16:40:20.757Z,14.86
2023-03-16T16:42:47.239Z,14.75
2023-03-16T16:45:13.631Z,14.67
2023-03-16T16:47:40.023Z,14.63
2023-03-16T16:50:06.521Z,14.40
2023-03-16T16:52:35.659Z,14.30
2023-03-16T16:55:02.074Z,14.21
2023-03-16T16:57:28.436Z,14.14
2023-03-16T16:59:54.807Z,13.87
2023-03-16T17:02:21.486Z,13.71
2023-03-16T17:04:51.071Z,13.68
2023-03-16T17:07:17.617Z,13.64
2023-03-16T17:09:44.054Z,13.51
2023-03-16T17:12:10.416Z,13.45
2023-03-16T17:14:37.207Z,13.35
2023-03-16T17:17:03.637Z,13.33
2023-03-16T17:19:30.239Z,13.27
2023-03-16T17:21:56.635Z,13.17
2023-03-16T17:24:23.037Z,13.10
2023-03-16T17:26:49.605Z,13.12
2023-03-16T17:29:16.186Z,13.14
2023-03-16T17:31:42.661Z,13.07
2023-03-16T17:34:09.099Z,12.85
2023-03-16T17:36:35.489Z,12.74
2023-03-16T17:39:02.038Z,12.67
2023-03-16T17:41:28.625Z,12.51
2023-03-16T17:43:55.764Z,12.64
2023-03-16T17:46:22.221Z,12.55
2023-03-16T17:48:48.710Z,12.49
2023-03-16T17:51:15.453Z,12.43
2023-03-16T17:53:42.040Z,12.40
2023-03-16T17:56:08.466Z,12.37
2023-03-16T17:58:34.964Z,12.20
2023-03-16T18:01:01.505Z,12.31
2023-03-16T18:03:30.490Z,12.40
2023-03-16T18:05:57.471Z,12.40
2023-03-16T18:08:23.886Z,12.34
2023-03-16T18:10:53.415Z,12.29
2023-03-16T18:13:19.821Z,12.38
2023-03-16T18:15:46.532Z,12.25
2023-03-16T18:18:13.012Z,12.19
2023-03-16T18:20:39.550Z,12.16
2023-03-16T18:23:05.937Z,12.20
2023-03-16T18:25:32.559Z,12.24
2023-03-16T18:28:01.255Z,12.27
2023-03-16T18:30:27.992Z,12.31
2023-03-16T18:32:54.665Z,12.19
2023-03-16T18:35:21.286Z,12.22
2023-03-16T18:37:47.694Z,12.13
2023-03-16T18:40:14.133Z,12.02
2023-03-16T18:42:40.573Z,12.09
2023-03-16T18:45:06.993Z,12.05
2023-03-16T18:47:33.487Z,12.02
2023-03-16T18:49:59.988Z,11.99
2023-03-16T18:52:26.529Z,11.98
2023-03-16T18:54:53.387Z,11.82
2023-03-16T18:57:19.909Z,11.81
2023-03-16T18:59:46.417Z,11.86
2023-03-16T19:02:12.931Z,11.81
2023-03-16T19:04:39.486Z,11.79
2023-03-16T19:07:05.877Z,11.79
2023-03-16T19:09:32.478Z,11.82
2023-03-16T19:11:58.887Z,11.81
2023-03-16T19:14:27.250Z,11.85
2023-03-16T19:16:56.057Z,11.81
2023-03-16T19:19:22.483Z,11.85
2023-03-16T19:21:50.664Z,11.77
2023-03-16T19:24:17.321Z,11.72
2023-03-16T19:26:43.797Z,11.69
2023-03-16T19:29:10.412Z,11.71
2023-03-16T19:31:36.883Z,11.69
2023-03-16T19:34:03.374Z,11.67
2023-03-16T19:36:29.877Z,11.64
2023-03-16T19:38:56.419Z,11.61
2023-03-16T19:41:22.808Z,11.57
2023-03-16T19:43:49.236Z,11.61
2023-03-16T19:46:15.665Z,11.57
2023-03-16T19:48:42.128Z,11.61
2023-03-16T19:51:08.532Z,11.46
2023-03-16T19:53:35.014Z,11.47
2023-03-16T19:56:01.437Z,11.35
2023-03-16T19:58:27.992Z,11.40
2023-03-16T20:00:54.422Z,11.10
2023-03-16T20:03:21.084Z,10.73
2023-03-16T20:05:47.664Z,10.63
2023-03-16T20:08:14.107Z,10.77
2023-03-16T20:10:40.505Z,10.82
2023-03-16T20:13:07.061Z,10.66
2023-03-16T20:15:33.459Z,10.67
2023-03-16T20:17:59.831Z,10.76
2023-03-16T20:20:26.257Z,10.69
2023-03-16T20:22:52.703Z,10.70
2023-03-16T20:25:19.255Z,10.75
2023-03-16T20:27:45.876Z,11.07
2023-03-16T20:30:12.256Z,11.06
2023-03-16T20:32:38.781Z,11.16
2023-03-16T20:35:05.227Z,11.23
2023-03-16T20:37:31.691Z,11.26
2023-03-16T20:39:58.173Z,11.20
2023-03-16T20:42:24.610Z,11.21
2023-03-16T20:44:51.103Z,11.18
2023-03-16T20:47:17.638Z,10.67
2023-03-16T20:49:44.069Z,10.60
2023-03-16T20:52:10.619Z,10.79
2023-03-16T20:54:37.140Z,10.87
2023-03-16T20:57:03.700Z,11.03
2023-03-16T20:59:30.257Z,10.95
2023-03-16T21:01:56.859Z,11.03
2023-03-16T21:04:23.349Z,10.58
2023-03-16T21:06:49.832Z,10.51
2023-03-16T21:09:16.458Z,10.49
2023-03-16T21:11:42.889Z,10.37
2023-03-16T21:14:09.323Z,10.39
2023-03-16T21:16:36.152Z,10.37
2023-03-16T21:19:02.710Z,10.13
2023-03-16T21:21:29.326Z,10.06
2023-03-16T21:23:55.894Z,10.02
2023-03-16T21:26:22.289Z,10.38
2023-03-16T21:28:48.735Z,10.36
2023-03-16T21:31:17.506Z,10.44
2023-03-16T21:33:45.446Z,10.43
2023-03-16T21:36:11.925Z,10.52
2023-03-16T21:38:38.473Z,10.26
2023-03-16T21:41:04.992Z,10.49
2023-03-16T21:43:31.615Z,10.10
2023-03-16T21:45:58.124Z,10.25
2023-03-16T21:48:24.722Z,10.24
2023-03-16T21:50:51.138Z,10.38
2023-03-16T21:53:17.584Z,10.49
2023-03-16T21:55:44.384Z,10.23
2023-03-16T21:58:10.832Z,10.50
2023-03-16T22:00:37.294Z,10.14
2023-03-16T22:03:03.741Z,9.83
2023-03-16T22:05:32.954Z,9.69
2023-03-16T22:07:59.537Z,9.68
2023-03-16T22:10:26.086Z,9.96
2023-03-16T22:12:52.606Z,10.29
2023-03-16T22:15:18.980Z,10.34
2023-03-16T22:17:45.555Z,10.06
2023-03-16T22:20:12.014Z,9.93
2023-03-16T22:22:38.432Z,9.86
2023-03-16T22:25:04.879Z,9.62
2023-03-16T22:27:31.639Z,9.74
2023-03-16T22:29:58.077Z,9.66
2023-03-16T22:32:24.927Z,9.61
2023-03-16T22:34:51.385Z,9.43
2023-03-16T22:37:17.817Z,9.42
2023-03-16T22:39:44.382Z,9.56
2023-03-16T22:42:10.855Z,9.79
2023-03-16T22:44:37.280Z,9.81
2023-03-16T22:47:03.743Z,9.68
2023-03-16T22:49:31.346Z,9.82
2023-03-16T22:51:57.950Z,9.85
2023-03-16T22:54:24.537Z,9.57
2023-03-16T22:56:51.168Z,9.79
2023-03-16T22:59:17.694Z,10.01
2023-03-16T23:01:44.151Z,9.95
2023-03-16T23:04:10.570Z,9.76
2023-03-16T23:06:36.977Z,9.23
2023-03-16T23:09:03.589Z,9.10
2023-03-16T23:11:30.130Z,9.01
2023-03-16T23:13:56.573Z,8.82
2023-03-16T23:16:23.116Z,8.76
2023-03-16T23:18:49.650Z,8.80
2023-03-16T23:21:16.082Z,8.91
2023-03-16T23:23:46.219Z,9.01
2023-03-16T23:26:17.379Z,8.76
2023-03-16T23:28:43.979Z,8.60
2023-03-16T23:31:10.463Z,8.51
2023-03-16T23:33:36.937Z,8.62
2023-03-16T23:36:03.419Z,8.58
2023-03-16T23:38:29.921Z,8.73
2023-03-16T23:40:56.412Z,8.63
2023-03-16T23:43:22.846Z,8.49
2023-03-16T23:45:49.353Z,8.45
2023-03-16T23:48:15.787Z,8.41
2023-03-16T23:50:44.126Z,8.46
2023-03-16T23:53:10.556Z,8.41
2023-03-16T23:55:37.010Z,8.44
2023-03-16T23:58:03.622Z,8.38
